Terminal Aerodrome Forecast
Issued by NWS

Home | Current Version | Previous Version | Text Only | Print | Product List | Glossary On
Versions: 1 2 3 4 5 6 7 8 9 10 11 12 13 14 15 16 17
000
FTUS46 KLOX 241308 AAA
TAFLGB
TAF AMD
KLGB 241308Z 2413/2512 VRB03KT P6SM OVC035
     FM241700 19010KT P6SM BKN040
     FM250300 28008KT P6SM BKN030
     FM250700 VRB03KT P6SM BKN025=

USA.gov is the U.S. government's official web portal to all federal, state and local government web resources and services.